Twr-7 — TWR-7 — position and weather

sailwx.info

Track history (hours):
 
Tides and Currents Weather Stations Pressure Air Temp Water Temp Dewpoint Dewpoint Depression Visibility Wind Speed Wind Dir Waves Ship Positions

Twr-7

Last reported at 2018-Apr-16 19:22 UTC. Time now 2018-Apr-21 09:55 UTC.
Position N 48°54' W 123°27'.

; draft 1.5 m.

Type: Military. MMSI: 369970258.

Date/timePositionNaut miles runAvg speedWind from/ knotsBaromVisibWave heightAir tempDewpointWater temp
2018-Apr-16 19:22N 48°54' W 123°27'715.5
2018-Apr-16 18:57N 48°49' W 123°20'1814.6
2018-Apr-16 17:45N 48°33' W 123°11'313.5
2018-Apr-16 17:30N 48°30' W 123°09'815.1
2018-Apr-16 16:59N 48°24' W 123°01'3517.6
2018-Apr-16 15:01N 47°55' W 122°32'018.0
2018-Apr-16 15:00N 47°55' W 122°31'917.3
2018-Apr-16 14:30N 47°47' W 122°28'712.6
2018-Apr-16 13:59N 47°42' W 122°35'  
2018-Apr-12 17:06N 47°42' W 122°34'1 8.7
2018-Apr-12 16:57N 47°43' W 122°34'512.2
2018-Apr-12 16:30N 47°47' W 122°28'815.8
2018-Apr-12 16:00N 47°55' W 122°31'5 7.5
2018-Apr-12 15:19N 47°51' W 122°37'515.2
2018-Apr-12 15:00N 47°48' W 122°42'  
2018-Apr-09 21:28N 47°44' W 122°45'714.0
2018-Apr-09 20:56N 47°50' W 122°39'4214.7
2018-Apr-09 18:06N 48°27' W 123°08'217.0
2018-Apr-09 18:00N 48°29' W 123°10'2017.0
2018-Apr-09 16:50N 48°47' W 123°20'515.9
2018-Apr-09 16:29N 48°52' W 123°24'  
Track history (hours):
 
Tides and Currents Weather Stations Pressure Air Temp Water Temp Dewpoint Dewpoint Depression Visibility Wind Speed Wind Dir Waves Ship Positions

Twr-7

Last reported at 2018-Apr-16 19:22 UTC. Time now 2018-Apr-21 09:55 UTC.
Position N 48°54' W 123°27'.

; draft 1.5 m.

Type: Military. MMSI: 369970258.

Date/timePositionNaut miles runAvg speedWind from/ knotsBaromVisibWave heightAir tempDewpointWater temp
2018-Apr-16 19:22N 48°54' W 123°27'715.5
2018-Apr-16 18:57N 48°49' W 123°20'1814.6
2018-Apr-16 17:45N 48°33' W 123°11'313.5
2018-Apr-16 17:30N 48°30' W 123°09'815.1
2018-Apr-16 16:59N 48°24' W 123°01'3517.6
2018-Apr-16 15:01N 47°55' W 122°32'018.0
2018-Apr-16 15:00N 47°55' W 122°31'917.3
2018-Apr-16 14:30N 47°47' W 122°28'712.6
2018-Apr-16 13:59N 47°42' W 122°35'  
2018-Apr-12 17:06N 47°42' W 122°34'1 8.7
2018-Apr-12 16:57N 47°43' W 122°34'512.2
2018-Apr-12 16:30N 47°47' W 122°28'815.8
2018-Apr-12 16:00N 47°55' W 122°31'5 7.5
2018-Apr-12 15:19N 47°51' W 122°37'515.2
2018-Apr-12 15:00N 47°48' W 122°42'  
2018-Apr-09 21:28N 47°44' W 122°45'714.0
2018-Apr-09 20:56N 47°50' W 122°39'4214.7
2018-Apr-09 18:06N 48°27' W 123°08'217.0
2018-Apr-09 18:00N 48°29' W 123°10'2017.0
2018-Apr-09 16:50N 48°47' W 123°20'515.9
2018-Apr-09 16:29N 48°52' W 123°24'  

Dump ship's entire track history